Saint-Leonard, Canada
Current Conditions -  °F | °C
As of 11:41 AM on Sunday 21 Dec 2014 (Local Time) from CYHU Reporting Station
Haze Haze  
Wind Chill:   Ceiling: 600
Heat Index: 16°   Visibility: 6mi
Dew Point: 14°   Wind: 5mph
Humidity: 93%   Direction: 40°NE
Pressure: 30.39"   Gusts: NA
Location:  45.58°N, 73.6°W
Report Text: CYHU 211641Z AUTO 04004KT 6SM BR OVC006 M09/M10 A3039 RMK SLP294
Loading
Personal Weather Stations






























Interactive Weather Map New forecast layout! Learn more

10-Day Weather Forecast

Advertisements
Track Severe Weather on mobile